sensor_id;sensor_type;location;lat;lon;timestamp;temperature;humidity
21092;DHT22;10704;42.678;23.288;2024-02-28T00:01:04;8.30;99.90
21092;DHT22;10704;42.678;23.288;2024-02-28T00:03:30;8.40;99.90
21092;DHT22;10704;42.678;23.288;2024-02-28T00:05:57;8.40;99.90
21092;DHT22;10704;42.678;23.288;2024-02-28T00:08:23;8.50;99.90
21092;DHT22;10704;42.678;23.288;2024-02-28T00:10:49;8.50;99.90
21092;DHT22;10704;42.678;23.288;2024-02-28T00:13:15;8.60;99.90
21092;DHT22;10704;42.678;23.288;2024-02-28T00:15:41;8.60;99.90
21092;DHT22;10704;42.678;23.288;2024-02-28T00:18:07;8.70;99.90
21092;DHT22;10704;42.678;23.288;2024-02-28T00:20:33;8.70;99.90
21092;DHT22;10704;42.678;23.288;2024-02-28T00:22:59;8.60;99.90
21092;DHT22;10704;42.678;23.288;2024-02-28T00:25:25;8.50;99.90
21092;DHT22;10704;42.678;23.288;2024-02-28T00:27:52;8.50;99.90
21092;DHT22;10704;42.678;23.288;2024-02-28T00:30:18;8.40;99.90
21092;DHT22;10704;42.678;23.288;2024-02-28T00:32:44;8.20;99.90
21092;DHT22;10704;42.678;23.288;2024-02-28T00:35:09;8.10;99.90
21092;DHT22;10704;42.678;23.288;2024-02-28T00:37:35;8.10;99.90
21092;DHT22;10704;42.678;23.288;2024-02-28T00:40:01;8.10;99.90
21092;DHT22;10704;42.678;23.288;2024-02-28T00:42:27;7.90;99.90
21092;DHT22;10704;42.678;23.288;2024-02-28T00:44:53;7.90;99.90
21092;DHT22;10704;42.678;23.288;2024-02-28T00:47:19;7.70;99.90
21092;DHT22;10704;42.678;23.288;2024-02-28T00:49:45;7.60;99.90
21092;DHT22;10704;42.678;23.288;2024-02-28T00:52:11;7.60;99.90
21092;DHT22;10704;42.678;23.288;2024-02-28T00:54:37;7.40;99.90
21092;DHT22;10704;42.678;23.288;2024-02-28T00:57:03;7.60;99.90
21092;DHT22;10704;42.678;23.288;2024-02-28T00:59:29;7.70;99.90
21092;DHT22;10704;42.678;23.288;2024-02-28T01:01:55;7.70;99.90
21092;DHT22;10704;42.678;23.288;2024-02-28T01:04:21;7.60;99.90
21092;DHT22;10704;42.678;23.288;2024-02-28T01:06:46;7.60;99.90
21092;DHT22;10704;42.678;23.288;2024-02-28T01:09:12;7.40;99.90
21092;DHT22;10704;42.678;23.288;2024-02-28T01:11:38;7.30;99.90
21092;DHT22;10704;42.678;23.288;2024-02-28T01:14:04;7.30;99.90
21092;DHT22;10704;42.678;23.288;2024-02-28T01:16:30;7.30;99.90
21092;DHT22;10704;42.678;23.288;2024-02-28T01:18:56;7.30;99.90
21092;DHT22;10704;42.678;23.288;2024-02-28T01:21:22;7.40;99.90
21092;DHT22;10704;42.678;23.288;2024-02-28T01:23:48;7.50;99.90
21092;DHT22;10704;42.678;23.288;2024-02-28T01:26:14;7.40;99.90
21092;DHT22;10704;42.678;23.288;2024-02-28T01:28:40;7.30;99.90
21092;DHT22;10704;42.678;23.288;2024-02-28T01:31:08;7.30;99.90
21092;DHT22;10704;42.678;23.288;2024-02-28T01:33:34;7.30;99.90
21092;DHT22;10704;42.678;23.288;2024-02-28T01:36:01;7.20;99.90
21092;DHT22;10704;42.678;23.288;2024-02-28T01:38:27;7.20;99.90
21092;DHT22;10704;42.678;23.288;2024-02-28T01:40:53;7.20;99.90
21092;DHT22;10704;42.678;23.288;2024-02-28T01:43:19;7.40;99.90
21092;DHT22;10704;42.678;23.288;2024-02-28T01:45:45;7.40;99.90
21092;DHT22;10704;42.678;23.288;2024-02-28T01:48:12;7.40;99.90
21092;DHT22;10704;42.678;23.288;2024-02-28T01:50:38;7.20;99.90
21092;DHT22;10704;42.678;23.288;2024-02-28T01:53:07;7.30;99.90
21092;DHT22;10704;42.678;23.288;2024-02-28T01:55:35;7.40;99.90
21092;DHT22;10704;42.678;23.288;2024-02-28T01:58:02;7.40;99.90
21092;DHT22;10704;42.678;23.288;2024-02-28T02:00:33;7.30;99.90
21092;DHT22;10704;42.678;23.288;2024-02-28T02:03:03;7.20;99.90
21092;DHT22;10704;42.678;23.288;2024-02-28T02:05:29;7.30;99.90
21092;DHT22;10704;42.678;23.288;2024-02-28T02:07:57;7.50;99.90
21092;DHT22;10704;42.678;23.288;2024-02-28T02:10:25;7.50;99.90
21092;DHT22;10704;42.678;23.288;2024-02-28T02:12:51;7.60;99.90
21092;DHT22;10704;42.678;23.288;2024-02-28T02:15:17;7.50;99.90
21092;DHT22;10704;42.678;23.288;2024-02-28T02:17:43;7.40;99.90
21092;DHT22;10704;42.678;23.288;2024-02-28T02:20:11;7.40;99.90
21092;DHT22;10704;42.678;23.288;2024-02-28T02:22:39;7.50;99.90
21092;DHT22;10704;42.678;23.288;2024-02-28T02:25:06;7.50;99.90
21092;DHT22;10704;42.678;23.288;2024-02-28T02:27:32;7.60;99.90
21092;DHT22;10704;42.678;23.288;2024-02-28T02:29:58;7.60;99.90
21092;DHT22;10704;42.678;23.288;2024-02-28T02:32:24;7.60;99.90
21092;DHT22;10704;42.678;23.288;2024-02-28T02:34:50;7.60;99.90
21092;DHT22;10704;42.678;23.288;2024-02-28T02:37:16;7.60;99.90
21092;DHT22;10704;42.678;23.288;2024-02-28T02:39:42;7.40;99.90
21092;DHT22;10704;42.678;23.288;2024-02-28T02:42:08;7.40;99.90
21092;DHT22;10704;42.678;23.288;2024-02-28T02:44:34;7.30;99.90
21092;DHT22;10704;42.678;23.288;2024-02-28T02:47:00;7.40;99.90
21092;DHT22;10704;42.678;23.288;2024-02-28T02:49:26;7.40;99.90
21092;DHT22;10704;42.678;23.288;2024-02-28T02:51:52;7.30;99.90
21092;DHT22;10704;42.678;23.288;2024-02-28T02:54:18;7.10;99.90
21092;DHT22;10704;42.678;23.288;2024-02-28T02:56:44;7.00;99.90
21092;DHT22;10704;42.678;23.288;2024-02-28T02:59:10;7.00;99.90
21092;DHT22;10704;42.678;23.288;2024-02-28T03:01:37;7.00;99.90
21092;DHT22;10704;42.678;23.288;2024-02-28T03:04:04;7.00;99.90
21092;DHT22;10704;42.678;23.288;2024-02-28T03:06:30;7.00;99.90
21092;DHT22;10704;42.678;23.288;2024-02-28T03:08:55;7.10;99.90
21092;DHT22;10704;42.678;23.288;2024-02-28T03:11:21;7.00;99.90
21092;DHT22;10704;42.678;23.288;2024-02-28T03:13:47;7.10;99.90
21092;DHT22;10704;42.678;23.288;2024-02-28T03:16:13;7.00;99.90
21092;DHT22;10704;42.678;23.288;2024-02-28T03:18:39;7.10;99.90
21092;DHT22;10704;42.678;23.288;2024-02-28T03:21:05;7.30;99.90
21092;DHT22;10704;42.678;23.288;2024-02-28T03:23:32;7.40;99.90
21092;DHT22;10704;42.678;23.288;2024-02-28T03:25:58;7.30;99.90
21092;DHT22;10704;42.678;23.288;2024-02-28T03:28:24;7.30;99.90
21092;DHT22;10704;42.678;23.288;2024-02-28T03:30:50;7.20;99.90
21092;DHT22;10704;42.678;23.288;2024-02-28T03:33:16;7.20;99.90
21092;DHT22;10704;42.678;23.288;2024-02-28T03:35:42;7.00;99.90
21092;DHT22;10704;42.678;23.288;2024-02-28T03:38:08;6.90;99.90
21092;DHT22;10704;42.678;23.288;2024-02-28T03:40:34;6.80;99.90
21092;DHT22;10704;42.678;23.288;2024-02-28T03:43:00;6.80;99.90
21092;DHT22;10704;42.678;23.288;2024-02-28T03:45:28;6.80;99.90
21092;DHT22;10704;42.678;23.288;2024-02-28T03:47:55;6.80;99.90
21092;DHT22;10704;42.678;23.288;2024-02-28T03:50:21;6.70;99.90
21092;DHT22;10704;42.678;23.288;2024-02-28T03:52:46;6.70;99.90
21092;DHT22;10704;42.678;23.288;2024-02-28T03:55:12;6.70;99.90
21092;DHT22;10704;42.678;23.288;2024-02-28T03:57:38;6.70;99.90
21092;DHT22;10704;42.678;23.288;2024-02-28T04:00:05;6.80;99.90
21092;DHT22;10704;42.678;23.288;2024-02-28T04:02:37;6.80;99.90
21092;DHT22;10704;42.678;23.288;2024-02-28T04:05:04;6.90;99.90
21092;DHT22;10704;42.678;23.288;2024-02-28T04:11:17;7.10;99.90
21092;DHT22;10704;42.678;23.288;2024-02-28T04:13:43;6.90;99.90
21092;DHT22;10704;42.678;23.288;2024-02-28T04:16:10;6.80;99.90
21092;DHT22;10704;42.678;23.288;2024-02-28T04:18:35;6.70;99.90
21092;DHT22;10704;42.678;23.288;2024-02-28T04:21:01;6.70;99.90
21092;DHT22;10704;42.678;23.288;2024-02-28T04:23:27;6.70;99.90
21092;DHT22;10704;42.678;23.288;2024-02-28T04:25:54;6.60;99.90
21092;DHT22;10704;42.678;23.288;2024-02-28T04:28:20;6.50;99.90
21092;DHT22;10704;42.678;23.288;2024-02-28T04:30:46;6.40;99.90
21092;DHT22;10704;42.678;23.288;2024-02-28T04:33:12;6.30;99.90
21092;DHT22;10704;42.678;23.288;2024-02-28T04:35:37;6.30;99.90
21092;DHT22;10704;42.678;23.288;2024-02-28T04:38:03;6.30;99.90
21092;DHT22;10704;42.678;23.288;2024-02-28T04:40:29;6.20;99.90
21092;DHT22;10704;42.678;23.288;2024-02-28T04:42:56;6.10;99.90
21092;DHT22;10704;42.678;23.288;2024-02-28T04:45:22;6.00;99.90
21092;DHT22;10704;42.678;23.288;2024-02-28T04:47:48;6.10;99.90
21092;DHT22;10704;42.678;23.288;2024-02-28T04:50:17;6.30;99.90
21092;DHT22;10704;42.678;23.288;2024-02-28T04:52:43;6.30;99.90
21092;DHT22;10704;42.678;23.288;2024-02-28T04:55:09;6.30;99.90
21092;DHT22;10704;42.678;23.288;2024-02-28T04:57:35;6.30;99.90
21092;DHT22;10704;42.678;23.288;2024-02-28T05:00:01;6.20;99.90
21092;DHT22;10704;42.678;23.288;2024-02-28T05:02:27;6.10;99.90
21092;DHT22;10704;42.678;23.288;2024-02-28T05:04:53;6.10;99.90
21092;DHT22;10704;42.678;23.288;2024-02-28T05:07:19;6.10;99.90
21092;DHT22;10704;42.678;23.288;2024-02-28T05:09:44;6.00;99.90
21092;DHT22;10704;42.678;23.288;2024-02-28T05:12:11;6.10;99.90
21092;DHT22;10704;42.678;23.288;2024-02-28T05:14:37;6.00;99.90
21092;DHT22;10704;42.678;23.288;2024-02-28T05:17:04;6.00;99.90
21092;DHT22;10704;42.678;23.288;2024-02-28T05:19:30;6.00;99.90
21092;DHT22;10704;42.678;23.288;2024-02-28T05:21:56;6.00;99.90
21092;DHT22;10704;42.678;23.288;2024-02-28T05:24:22;5.90;99.90
21092;DHT22;10704;42.678;23.288;2024-02-28T05:26:48;5.90;99.90
21092;DHT22;10704;42.678;23.288;2024-02-28T05:29:14;6.00;99.90
21092;DHT22;10704;42.678;23.288;2024-02-28T05:31:40;6.10;99.90
21092;DHT22;10704;42.678;23.288;2024-02-28T05:34:06;6.10;99.90
21092;DHT22;10704;42.678;23.288;2024-02-28T05:36:32;6.30;99.90
21092;DHT22;10704;42.678;23.288;2024-02-28T05:39:00;6.40;99.90
21092;DHT22;10704;42.678;23.288;2024-02-28T05:41:27;6.20;99.90
21092;DHT22;10704;42.678;23.288;2024-02-28T05:43:54;6.20;99.90
21092;DHT22;10704;42.678;23.288;2024-02-28T05:46:20;6.30;99.90
21092;DHT22;10704;42.678;23.288;2024-02-28T05:48:48;6.50;99.90
21092;DHT22;10704;42.678;23.288;2024-02-28T05:51:14;6.60;99.90
21092;DHT22;10704;42.678;23.288;2024-02-28T05:53:40;6.80;99.90
21092;DHT22;10704;42.678;23.288;2024-02-28T05:56:08;7.00;99.90
21092;DHT22;10704;42.678;23.288;2024-02-28T05:58:47;7.10;99.90
21092;DHT22;10704;42.678;23.288;2024-02-28T06:01:16;7.20;99.90
21092;DHT22;10704;42.678;23.288;2024-02-28T06:03:45;7.10;99.90
21092;DHT22;10704;42.678;23.288;2024-02-28T06:06:11;7.20;99.90
21092;DHT22;10704;42.678;23.288;2024-02-28T06:08:39;7.30;99.90
21092;DHT22;10704;42.678;23.288;2024-02-28T06:11:06;7.50;99.90
21092;DHT22;10704;42.678;23.288;2024-02-28T06:13:32;7.70;99.90
21092;DHT22;10704;42.678;23.288;2024-02-28T06:15:59;7.70;99.90
21092;DHT22;10704;42.678;23.288;2024-02-28T06:18:28;7.80;99.90
21092;DHT22;10704;42.678;23.288;2024-02-28T06:20:54;7.70;99.90
21092;DHT22;10704;42.678;23.288;2024-02-28T06:23:21;7.50;99.90
21092;DHT22;10704;42.678;23.288;2024-02-28T06:25:47;7.50;99.90
21092;DHT22;10704;42.678;23.288;2024-02-28T06:28:13;7.80;99.90
21092;DHT22;10704;42.678;23.288;2024-02-28T06:30:39;8.00;99.90
21092;DHT22;10704;42.678;23.288;2024-02-28T06:33:06;8.10;99.90
21092;DHT22;10704;42.678;23.288;2024-02-28T06:35:34;8.30;99.90
21092;DHT22;10704;42.678;23.288;2024-02-28T06:38:01;8.40;99.90
21092;DHT22;10704;42.678;23.288;2024-02-28T06:40:26;8.40;99.90
21092;DHT22;10704;42.678;23.288;2024-02-28T06:42:54;8.60;99.90
21092;DHT22;10704;42.678;23.288;2024-02-28T06:45:20;8.60;99.90
21092;DHT22;10704;42.678;23.288;2024-02-28T06:47:46;8.80;99.90
21092;DHT22;10704;42.678;23.288;2024-02-28T06:50:12;8.80;99.90
21092;DHT22;10704;42.678;23.288;2024-02-28T06:52:38;8.80;99.90
21092;DHT22;10704;42.678;23.288;2024-02-28T06:55:04;8.90;99.90
21092;DHT22;10704;42.678;23.288;2024-02-28T06:57:40;8.80;99.90
21092;DHT22;10704;42.678;23.288;2024-02-28T07:00:07;9.00;99.90
21092;DHT22;10704;42.678;23.288;2024-02-28T07:02:36;9.00;99.90
21092;DHT22;10704;42.678;23.288;2024-02-28T07:05:03;9.30;99.90
21092;DHT22;10704;42.678;23.288;2024-02-28T07:07:33;9.70;99.90
21092;DHT22;10704;42.678;23.288;2024-02-28T07:10:01;9.70;99.90
21092;DHT22;10704;42.678;23.288;2024-02-28T07:12:27;9.70;99.90
21092;DHT22;10704;42.678;23.288;2024-02-28T07:14:53;9.80;99.90
21092;DHT22;10704;42.678;23.288;2024-02-28T07:17:20;9.80;99.90
21092;DHT22;10704;42.678;23.288;2024-02-28T07:19:46;9.80;99.90
21092;DHT22;10704;42.678;23.288;2024-02-28T07:22:12;10.10;99.90
21092;DHT22;10704;42.678;23.288;2024-02-28T07:24:39;10.40;99.90
21092;DHT22;10704;42.678;23.288;2024-02-28T07:27:05;10.60;99.90
21092;DHT22;10704;42.678;23.288;2024-02-28T07:29:31;10.60;99.90
21092;DHT22;10704;42.678;23.288;2024-02-28T07:31:57;10.50;99.90
21092;DHT22;10704;42.678;23.288;2024-02-28T07:34:23;10.50;99.90
21092;DHT22;10704;42.678;23.288;2024-02-28T07:36:49;11.10;99.90
21092;DHT22;10704;42.678;23.288;2024-02-28T07:39:15;11.10;99.90
21092;DHT22;10704;42.678;23.288;2024-02-28T07:41:42;11.40;99.90
21092;DHT22;10704;42.678;23.288;2024-02-28T07:44:08;11.80;99.90
21092;DHT22;10704;42.678;23.288;2024-02-28T07:46:34;12.20;99.90
21092;DHT22;10704;42.678;23.288;2024-02-28T07:49:01;12.40;99.90
21092;DHT22;10704;42.678;23.288;2024-02-28T07:51:28;12.90;99.90
21092;DHT22;10704;42.678;23.288;2024-02-28T07:53:54;13.10;99.90
21092;DHT22;10704;42.678;23.288;2024-02-28T07:56:21;13.10;99.90
21092;DHT22;10704;42.678;23.288;2024-02-28T07:58:47;13.50;99.90
21092;DHT22;10704;42.678;23.288;2024-02-28T08:01:14;13.50;99.90
21092;DHT22;10704;42.678;23.288;2024-02-28T08:03:41;14.20;99.90
21092;DHT22;10704;42.678;23.288;2024-02-28T08:06:07;14.40;99.90
21092;DHT22;10704;42.678;23.288;2024-02-28T08:08:35;14.30;99.90
21092;DHT22;10704;42.678;23.288;2024-02-28T08:11:01;14.80;99.90
21092;DHT22;10704;42.678;23.288;2024-02-28T08:13:27;15.30;99.90
21092;DHT22;10704;42.678;23.288;2024-02-28T08:15:54;16.10;99.90
21092;DHT22;10704;42.678;23.288;2024-02-28T08:18:20;17.00;99.90
21092;DHT22;10704;42.678;23.288;2024-02-28T08:20:46;17.20;97.00
21092;DHT22;10704;42.678;23.288;2024-02-28T08:23:12;17.00;96.60
21092;DHT22;10704;42.678;23.288;2024-02-28T08:25:38;16.80;96.60
21092;DHT22;10704;42.678;23.288;2024-02-28T08:28:04;16.40;95.90
21092;DHT22;10704;42.678;23.288;2024-02-28T08:30:30;15.90;98.30
21092;DHT22;10704;42.678;23.288;2024-02-28T08:32:56;15.50;99.10
21092;DHT22;10704;42.678;23.288;2024-02-28T08:35:23;15.10;99.90
21092;DHT22;10704;42.678;23.288;2024-02-28T08:37:49;15.10;99.90
21092;DHT22;10704;42.678;23.288;2024-02-28T08:40:15;15.60;99.90
21092;DHT22;10704;42.678;23.288;2024-02-28T08:42:41;16.20;99.50
21092;DHT22;10704;42.678;23.288;2024-02-28T08:45:07;17.00;97.00
21092;DHT22;10704;42.678;23.288;2024-02-28T08:47:34;17.20;95.30
21092;DHT22;10704;42.678;23.288;2024-02-28T08:50:00;17.30;94.70
21092;DHT22;10704;42.678;23.288;2024-02-28T08:52:26;17.10;94.60
21092;DHT22;10704;42.678;23.288;2024-02-28T08:54:52;17.70;94.60
21092;DHT22;10704;42.678;23.288;2024-02-28T08:57:19;18.30;93.20
21092;DHT22;10704;42.678;23.288;2024-02-28T08:59:48;18.90;90.90
21092;DHT22;10704;42.678;23.288;2024-02-28T09:02:13;19.10;89.00
21092;DHT22;10704;42.678;23.288;2024-02-28T09:04:39;19.10;88.70
21092;DHT22;10704;42.678;23.288;2024-02-28T09:07:05;19.20;88.80
21092;DHT22;10704;42.678;23.288;2024-02-28T09:09:31;19.40;88.10
21092;DHT22;10704;42.678;23.288;2024-02-28T09:12:00;19.90;84.40
21092;DHT22;10704;42.678;23.288;2024-02-28T09:14:28;20.10;81.00
21092;DHT22;10704;42.678;23.288;2024-02-28T09:16:54;20.00;83.10
21092;DHT22;10704;42.678;23.288;2024-02-28T09:19:27;20.10;81.90
21092;DHT22;10704;42.678;23.288;2024-02-28T09:21:52;19.80;80.90
21092;DHT22;10704;42.678;23.288;2024-02-28T09:24:18;19.70;81.60
21092;DHT22;10704;42.678;23.288;2024-02-28T09:26:44;19.70;81.40
21092;DHT22;10704;42.678;23.288;2024-02-28T09:29:10;19.80;80.20
21092;DHT22;10704;42.678;23.288;2024-02-28T09:31:36;19.50;80.60
21092;DHT22;10704;42.678;23.288;2024-02-28T09:34:02;19.50;80.30
21092;DHT22;10704;42.678;23.288;2024-02-28T09:36:42;20.30;80.40
21092;DHT22;10704;42.678;23.288;2024-02-28T09:39:12;21.50;77.00
21092;DHT22;10704;42.678;23.288;2024-02-28T09:41:39;22.20;73.40
21092;DHT22;10704;42.678;23.288;2024-02-28T09:44:06;23.30;69.90
21092;DHT22;10704;42.678;23.288;2024-02-28T09:46:33;23.80;67.00
21092;DHT22;10704;42.678;23.288;2024-02-28T09:49:05;24.30;64.80
21092;DHT22;10704;42.678;23.288;2024-02-28T09:51:35;24.80;62.60
21092;DHT22;10704;42.678;23.288;2024-02-28T09:54:02;25.10;60.40
21092;DHT22;10704;42.678;23.288;2024-02-28T09:56:29;24.40;60.80
21092;DHT22;10704;42.678;23.288;2024-02-28T09:58:55;23.10;62.70
21092;DHT22;10704;42.678;23.288;2024-02-28T10:01:28;21.60;65.20
21092;DHT22;10704;42.678;23.288;2024-02-28T10:03:55;20.20;69.20
21092;DHT22;10704;42.678;23.288;2024-02-28T10:06:22;19.80;71.10
21092;DHT22;10704;42.678;23.288;2024-02-28T10:08:48;19.30;72.80
21092;DHT22;10704;42.678;23.288;2024-02-28T10:11:21;18.60;74.20
21092;DHT22;10704;42.678;23.288;2024-02-28T10:13:48;17.70;77.70
21092;DHT22;10704;42.678;23.288;2024-02-28T10:16:14;17.90;78.80
21092;DHT22;10704;42.678;23.288;2024-02-28T10:22:37;17.90;79.20
21092;DHT22;10704;42.678;23.288;2024-02-28T10:25:03;17.90;79.90
21092;DHT22;10704;42.678;23.288;2024-02-28T10:27:33;17.90;80.00
21092;DHT22;10704;42.678;23.288;2024-02-28T10:30:00;17.80;80.30
21092;DHT22;10704;42.678;23.288;2024-02-28T10:32:31;17.90;80.30
21092;DHT22;10704;42.678;23.288;2024-02-28T10:34:59;18.10;80.80
21092;DHT22;10704;42.678;23.288;2024-02-28T10:37:29;19.00;78.00
21092;DHT22;10704;42.678;23.288;2024-02-28T10:39:58;19.80;76.10
21092;DHT22;10704;42.678;23.288;2024-02-28T10:42:30;21.20;72.90
21092;DHT22;10704;42.678;23.288;2024-02-28T10:44:58;23.20;67.40
21092;DHT22;10704;42.678;23.288;2024-02-28T10:47:25;24.00;63.50
21092;DHT22;10704;42.678;23.288;2024-02-28T10:49:52;24.70;61.80
21092;DHT22;10704;42.678;23.288;2024-02-28T10:52:19;25.90;59.00
21092;DHT22;10704;42.678;23.288;2024-02-28T10:54:52;25.60;57.20
21092;DHT22;10704;42.678;23.288;2024-02-28T10:57:21;25.50;56.60
21092;DHT22;10704;42.678;23.288;2024-02-28T10:59:47;25.90;56.40
21092;DHT22;10704;42.678;23.288;2024-02-28T11:02:14;25.70;55.10
21092;DHT22;10704;42.678;23.288;2024-02-28T11:04:41;24.80;55.60
21092;DHT22;10704;42.678;23.288;2024-02-28T11:07:07;24.30;57.10
21092;DHT22;10704;42.678;23.288;2024-02-28T11:09:34;24.60;55.90
21092;DHT22;10704;42.678;23.288;2024-02-28T11:12:00;24.40;56.10
21092;DHT22;10704;42.678;23.288;2024-02-28T11:14:26;24.20;56.50
21092;DHT22;10704;42.678;23.288;2024-02-28T11:17:05;23.60;56.90
21092;DHT22;10704;42.678;23.288;2024-02-28T11:19:32;24.30;54.80
21092;DHT22;10704;42.678;23.288;2024-02-28T11:22:00;24.50;53.90
21092;DHT22;10704;42.678;23.288;2024-02-28T11:24:31;24.50;53.20
21092;DHT22;10704;42.678;23.288;2024-02-28T11:26:57;23.20;55.00
21092;DHT22;10704;42.678;23.288;2024-02-28T11:29:28;22.90;56.40
21092;DHT22;10704;42.678;23.288;2024-02-28T11:31:55;23.50;56.10
21092;DHT22;10704;42.678;23.288;2024-02-28T11:34:21;24.70;54.20
21092;DHT22;10704;42.678;23.288;2024-02-28T11:36:48;25.00;53.00
21092;DHT22;10704;42.678;23.288;2024-02-28T11:39:15;25.50;52.20
21092;DHT22;10704;42.678;23.288;2024-02-28T11:41:41;25.80;50.00
21092;DHT22;10704;42.678;23.288;2024-02-28T11:44:13;25.80;50.00
21092;DHT22;10704;42.678;23.288;2024-02-28T11:46:46;25.10;50.80
21092;DHT22;10704;42.678;23.288;2024-02-28T11:49:15;25.90;49.90
21092;DHT22;10704;42.678;23.288;2024-02-28T11:51:42;25.90;49.40
21092;DHT22;10704;42.678;23.288;2024-02-28T11:54:09;25.20;49.80
21092;DHT22;10704;42.678;23.288;2024-02-28T11:56:39;24.10;50.70
21092;DHT22;10704;42.678;23.288;2024-02-28T11:59:05;23.80;52.30
21092;DHT22;10704;42.678;23.288;2024-02-28T12:01:41;25.00;50.90
21092;DHT22;10704;42.678;23.288;2024-02-28T12:04:08;24.40;51.30
21092;DHT22;10704;42.678;23.288;2024-02-28T12:06:34;23.90;51.90
21092;DHT22;10704;42.678;23.288;2024-02-28T12:09:09;23.50;52.10
21092;DHT22;10704;42.678;23.288;2024-02-28T12:11:36;23.80;52.60
21092;DHT22;10704;42.678;23.288;2024-02-28T12:14:03;24.30;51.50
21092;DHT22;10704;42.678;23.288;2024-02-28T12:16:30;23.90;52.10
21092;DHT22;10704;42.678;23.288;2024-02-28T12:18:56;23.90;51.50
21092;DHT22;10704;42.678;23.288;2024-02-28T12:21:22;23.50;52.60
21092;DHT22;10704;42.678;23.288;2024-02-28T12:23:49;23.40;52.80
21092;DHT22;10704;42.678;23.288;2024-02-28T12:26:17;23.10;53.40
21092;DHT22;10704;42.678;23.288;2024-02-28T12:28:44;22.80;53.60
21092;DHT22;10704;42.678;23.288;2024-02-28T12:31:10;22.70;53.10
21092;DHT22;10704;42.678;23.288;2024-02-28T12:33:38;23.30;53.20
21092;DHT22;10704;42.678;23.288;2024-02-28T12:36:04;23.60;51.80
21092;DHT22;10704;42.678;23.288;2024-02-28T12:38:30;23.40;51.90
21092;DHT22;10704;42.678;23.288;2024-02-28T12:40:57;23.00;52.10
21092;DHT22;10704;42.678;23.288;2024-02-28T12:43:23;23.30;51.80
21092;DHT22;10704;42.678;23.288;2024-02-28T12:45:51;23.80;50.10
21092;DHT22;10704;42.678;23.288;2024-02-28T12:48:16;23.80;50.40
21092;DHT22;10704;42.678;23.288;2024-02-28T12:50:42;23.40;50.90
21092;DHT22;10704;42.678;23.288;2024-02-28T12:53:08;22.70;52.60
21092;DHT22;10704;42.678;23.288;2024-02-28T12:55:34;22.00;52.80
21092;DHT22;10704;42.678;23.288;2024-02-28T12:58:00;21.60;53.80
21092;DHT22;10704;42.678;23.288;2024-02-28T13:00:30;21.80;54.20
21092;DHT22;10704;42.678;23.288;2024-02-28T13:02:56;21.80;55.20
21092;DHT22;10704;42.678;23.288;2024-02-28T13:05:22;21.20;56.50
21092;DHT22;10704;42.678;23.288;2024-02-28T13:07:48;21.20;57.00
21092;DHT22;10704;42.678;23.288;2024-02-28T13:10:14;21.40;56.80
21092;DHT22;10704;42.678;23.288;2024-02-28T13:12:39;21.50;57.20
21092;DHT22;10704;42.678;23.288;2024-02-28T13:15:06;20.70;58.40
21092;DHT22;10704;42.678;23.288;2024-02-28T13:17:33;20.00;60.60
21092;DHT22;10704;42.678;23.288;2024-02-28T13:19:59;19.60;62.20
21092;DHT22;10704;42.678;23.288;2024-02-28T13:22:25;19.80;62.90
21092;DHT22;10704;42.678;23.288;2024-02-28T13:24:51;19.80;62.10
21092;DHT22;10704;42.678;23.288;2024-02-28T13:27:17;19.50;63.20
21092;DHT22;10704;42.678;23.288;2024-02-28T13:29:43;19.00;64.60
21092;DHT22;10704;42.678;23.288;2024-02-28T13:32:09;18.40;66.50
21092;DHT22;10704;42.678;23.288;2024-02-28T13:34:35;18.50;67.10
21092;DHT22;10704;42.678;23.288;2024-02-28T13:37:01;18.70;66.80
21092;DHT22;10704;42.678;23.288;2024-02-28T13:39:27;18.70;66.50
21092;DHT22;10704;42.678;23.288;2024-02-28T13:41:53;18.80;66.80
21092;DHT22;10704;42.678;23.288;2024-02-28T13:44:19;18.90;66.30
21092;DHT22;10704;42.678;23.288;2024-02-28T13:46:45;18.70;67.30
21092;DHT22;10704;42.678;23.288;2024-02-28T13:49:13;18.60;67.30
21092;DHT22;10704;42.678;23.288;2024-02-28T13:51:40;18.10;67.80
21092;DHT22;10704;42.678;23.288;2024-02-28T13:54:06;17.70;69.60
21092;DHT22;10704;42.678;23.288;2024-02-28T13:56:32;17.60;70.10
21092;DHT22;10704;42.678;23.288;2024-02-28T13:58:57;17.70;70.00
21092;DHT22;10704;42.678;23.288;2024-02-28T14:01:24;17.40;70.40
21092;DHT22;10704;42.678;23.288;2024-02-28T14:03:49;17.10;71.30
21092;DHT22;10704;42.678;23.288;2024-02-28T14:06:15;16.90;72.50
21092;DHT22;10704;42.678;23.288;2024-02-28T14:08:43;16.70;73.30
21092;DHT22;10704;42.678;23.288;2024-02-28T14:11:10;16.90;73.50
21092;DHT22;10704;42.678;23.288;2024-02-28T14:13:36;17.10;73.20
21092;DHT22;10704;42.678;23.288;2024-02-28T14:16:03;17.10;72.90
21092;DHT22;10704;42.678;23.288;2024-02-28T14:18:29;17.10;72.90
21092;DHT22;10704;42.678;23.288;2024-02-28T14:20:55;16.90;73.40
21092;DHT22;10704;42.678;23.288;2024-02-28T14:23:21;16.90;73.40
21092;DHT22;10704;42.678;23.288;2024-02-28T14:25:47;17.00;73.40
21092;DHT22;10704;42.678;23.288;2024-02-28T14:28:13;17.00;73.20
21092;DHT22;10704;42.678;23.288;2024-02-28T14:30:39;17.00;73.20
21092;DHT22;10704;42.678;23.288;2024-02-28T14:33:05;16.90;73.90
21092;DHT22;10704;42.678;23.288;2024-02-28T14:35:31;16.80;74.80
21092;DHT22;10704;42.678;23.288;2024-02-28T14:37:57;16.60;75.90
21092;DHT22;10704;42.678;23.288;2024-02-28T14:40:23;16.70;76.30
21092;DHT22;10704;42.678;23.288;2024-02-28T14:42:49;16.80;76.40
21092;DHT22;10704;42.678;23.288;2024-02-28T14:45:15;16.80;76.30
21092;DHT22;10704;42.678;23.288;2024-02-28T14:47:45;16.90;76.30
21092;DHT22;10704;42.678;23.288;2024-02-28T14:50:11;16.80;76.20
21092;DHT22;10704;42.678;23.288;2024-02-28T14:52:38;16.90;75.80
21092;DHT22;10704;42.678;23.288;2024-02-28T14:55:08;17.10;76.20
21092;DHT22;10704;42.678;23.288;2024-02-28T14:57:38;17.20;75.00
21092;DHT22;10704;42.678;23.288;2024-02-28T15:00:06;17.30;75.10
21092;DHT22;10704;42.678;23.288;2024-02-28T15:02:43;17.20;74.90
21092;DHT22;10704;42.678;23.288;2024-02-28T15:05:11;17.30;75.60
21092;DHT22;10704;42.678;23.288;2024-02-28T15:07:37;17.20;74.80
21092;DHT22;10704;42.678;23.288;2024-02-28T15:10:04;17.20;75.50
21092;DHT22;10704;42.678;23.288;2024-02-28T15:12:31;17.20;74.80
21092;DHT22;10704;42.678;23.288;2024-02-28T15:15:02;17.00;75.10
21092;DHT22;10704;42.678;23.288;2024-02-28T15:17:30;16.90;75.80
21092;DHT22;10704;42.678;23.288;2024-02-28T15:19:56;16.80;76.40
21092;DHT22;10704;42.678;23.288;2024-02-28T15:22:22;16.80;76.70
21092;DHT22;10704;42.678;23.288;2024-02-28T15:24:48;16.60;77.00
21092;DHT22;10704;42.678;23.288;2024-02-28T15:27:14;16.70;77.40